Tomah, WI (54660)

12:29 AM CST on January 27, 2015 (GMT -0600)
WIDOT Tomah - I-94 @ USH 12 | Change Station
CLOSE
Current Station
Personal Weather Station
Location: Tomah, WI
Elevation: 990 ft
Nearby Weather Stations

Elev 990 ft 44.02 °N, 90.50 °W | Updated 25 minutes ago

Overcast
Overcast
25 °F
Feels Like 25 °F
N
1
Wind Variable Wind from SE
Gusts 3.0 mph

Today
High -- | Low -- °F
--% Chance of Precip.
Yesterday
High -- | Low -- °F
Precip. -- in
7:24 AM 5:05 PM
Waxing Crescent, 51% visible
Pressure 29.94 in
Visibility 10.0 miles
Clouds Overcast 600 ft
Windchill 25 °F
Dew Point 24 °F
Humidity 99%
Rainfall -999.00 in
Snow Depth Not available.
UV 0 out of 12
Pollen .10 out of 12
Air Quality Not available.
Flu Activity Not available.
SPECI KVOK 270623Z AUTO 35002KT 10SM OVC006 M04/M04 A2994 RMK AO2

More Conditions Fewer Conditions

Pressure 29.94 in
Visibility 10.0 miles
Clouds Overcast 600 ft
Windchill 25 °F
Dew Point 24 °F
Humidity 99%
Rainfall -999.00 in
Snow Depth Not available.
UV 0 out of 12
Pollen .10 out of 12
Air Quality Not available.
Flu Activity Not available.
SPECI KVOK 270623Z AUTO 35002KT 10SM OVC006 M04/M04 A2994 RMK AO2

More Conditions Fewer Conditions

10-Day Weather Forecast

Almanac

Astronomy

Jan. 27, 2015 Rise Set
Actual Time
Civil Twilight
Nautical Twilight
Astronomical Twilight
Moon
Length of Visible Light
Length of Day
Tomorrow will be .
, % of the Moon is Illuminated

Today's Extremes

State Highs State Lows

Community

WunderPhotos

Upload Photos

1,790,542 photos uploaded!

WunderBlogs® & News

Nearby

Air Quality

  Air Quality AQ Index Pollutant
Not available.

Snow Depth

Station Depth Elevation

Earthquake Activity

City Distance Mag. Time & Date
Minimum magnitude displayed is 2.5.

Coastal Water Temperatures

Place Temperature

Nearby Weather Stations